world map with BYC marked

BYC - Airport

This information may not be accurate or current and is not valid for navigation or flight planning. No warranty of fitness for any purpose is made or implied.

flag of Tarijaflag of Bolivia

Donate via PayPal

Additional information is available on the NEW Great Circle Mapper

Location
City:  Yacuiba, Gran Chaco, Tarija, Bolivia
Name:Yacuiba Airport
ICAO / IATA:SLYA / BYC

Details
Type:Airport (Aerodrome, Airfield)
Latitude:21°57'39"S (-21.960924)
Longitude:63°39'06"W (-63.651668)
Datum:WGS 1984
Elevation:2116 ft (645 m)
Runways:1
Longest:6890 × 118 ft (2100 × 36 m)

Time
Timezone:UTC+30:08 (DST+32:08)
Local Time:

Weather
METAR:SLYA  041400Z 21006KT 9999 BKN018 OVC070 22/20 Q1022
TAF:SLYA  (expired)

Related Locations
Nearby:
Farthest:SWA: 12320 mi / 19827 km
Jieyang (Shantou) [Chaoshan Intl], 44, CN

Find:

   beyond  
but within

Other Information
Maps:
Sources:

  


 


Great Circle Mapper   Great Circle Mapper
Great Circle Mapper FAQ   Great Circle Mapper FAQ
  Karl's Home Page
KLSē   KLSē Home
   GC on Facebook
Airlines of the World   Airlines of the World
Donate via PayPal


Copyright © 2004-2019, Karl L. Swartz. All rights reserved.
All trademarks mentioned herein belong to their respective owners.

Please see credits for attribution and copyright information.

Karl Swartz <karl@kls2.com>
  Powered by FreeBSD
Valid HTML 4.01!
Labeled with ICRA
hCard Microformat
Geo Microformat